Hathaway, MT (59333)

8:35 AM MST on February 28, 2017 (GMT -0700)
Graveyard Creek Road | | Change Station

Elev 3028 ft 46.18 °N, 106.07 °W | Updated 11 seconds ago

Partly Cloudy
Partly Cloudy
28.6 °F
Feels Like 24 °F
N
4.2
Wind Variable Wind from South

Today
High -- | Low -- °F
--% Chance of Precip.
Yesterday
High -- | Low -- °F
Precip. -- in
Pressure 29.82 in
Visibility 6.0 miles
Clouds Clear
Windchill 24 °F
Dew Point 24 °F
Humidity 81%
Rainfall 0.00 in
Snow Depth Not available.
6:45 AM 5:50 PM
Waxing Crescent, 5% visible
METAR KMLS 281453Z AUTO 15006KT 6SM BR CLR M06/M08 A2972 RMK AO2 SLP098 I3000 T10611083 53002
Pressure 29.82 in
Visibility 6.0 miles
Clouds Clear
Windchill 24 °F
Dew Point 24 °F
Humidity 81%
Rainfall 0.00 in
Snow Depth Not available.
6:45 AM 5:50 PM
Waxing Crescent, 5% visible
METAR KMLS 281453Z AUTO 15006KT 6SM BR CLR M06/M08 A2972 RMK AO2 SLP098 I3000 T10611083 53002

Get Your Daily Forecast Email!

Thanks for signing up!

Be on the lookout for a verification email in your inbox.

You'll start receiving the daily forecast at 8 AM.

×

10-Day Weather Forecast

Almanac

Astronomy

Feb. 28, 2017 Rise Set
Actual Time
Civil Twilight
Nautical Twilight
Astronomical Twilight
Moon
Length of Visible Light
Length of Day
Tomorrow will be .
, % of the Moon is Illuminated

Today's Extremes

State Highs State Lows

Community

WunderPhotos

Upload Photos

1,962,540 photos uploaded!

WunderBlog® & News

Nearby

Air Quality

  Air Quality AQ Index Pollutant
Not available.

Snow Depth

Station Depth Elevation

Earthquake Activity

City Distance Mag. Time & Date
Minimum magnitude displayed is 2.5.

Coastal Water Temperatures

Place Temperature

Stations

Nearby Weather Stations

Station Location Temp. Windchill Dew Point Humidity Wind Precip. Elev Updated Type
                   

Watches & Warnings

There are currently no watches in effect.